Terminal Aerodrome Forecast
Issued by NWS

Home | Current Version | Previous Version | Text Only | Print | Product List | Glossary On
Versions: 1 2 3 4 5 6 7 8 9 10 11 12 13 14 15 16 17 18 19 20 21 22 23 24 25 26 27 28
000
FTUS45 KGJT 190524
TAFMTJ
TAF
KMTJ 190524Z 1906/2006 18007KT P6SM FEW200
     FM191500 21004KT P6SM FEW200
     FM191700 27004KT P6SM SCT200
     FM192100 24004KT P6SM BKN100
     FM192200 22004KT P6SM VCSH BKN060
     FM200000 19004KT P6SM BKN025=

USA.gov is the U.S. government's official web portal to all federal, state and local government web resources and services.